createdAt,value
2022-12-11T00:01:10.340Z,100.00
2022-12-11T00:03:38.252Z,100.00
2022-12-11T00:06:08.651Z,100.00
2022-12-11T00:08:37.378Z,100.00
2022-12-11T00:11:06.264Z,100.00
2022-12-11T00:13:34.110Z,100.00
2022-12-11T00:16:03.078Z,100.00
2022-12-11T00:18:36.506Z,100.00
2022-12-11T00:21:05.488Z,100.00
2022-12-11T00:23:36.794Z,100.00
2022-12-11T00:26:06.792Z,100.00
2022-12-11T00:28:35.492Z,100.00
2022-12-11T00:31:05.397Z,100.00
2022-12-11T00:33:33.348Z,100.00
2022-12-11T00:36:00.992Z,100.00
2022-12-11T00:38:29.005Z,100.00
2022-12-11T00:41:01.054Z,100.00
2022-12-11T00:43:28.725Z,100.00
2022-12-11T00:45:56.400Z,100.00
2022-12-11T00:48:24.275Z,100.00
2022-12-11T00:50:51.912Z,100.00
2022-12-11T00:53:19.626Z,100.00
2022-12-11T00:55:47.248Z,100.00
2022-12-11T00:58:16.845Z,100.00
2022-12-11T01:00:44.836Z,100.00
2022-12-11T01:03:15.389Z,100.00
2022-12-11T01:05:43.249Z,100.00
2022-12-11T01:08:10.914Z,100.00
2022-12-11T01:10:38.879Z,100.00
2022-12-11T01:13:08.302Z,100.00
2022-12-11T01:15:45.474Z,100.00
2022-12-11T01:18:15.589Z,100.00
2022-12-11T01:20:44.089Z,100.00
2022-12-11T01:23:13.514Z,100.00
2022-12-11T01:25:42.928Z,100.00
2022-12-11T01:28:11.419Z,100.00
2022-12-11T01:30:45.465Z,100.00
2022-12-11T01:33:13.476Z,100.00
2022-12-11T01:35:41.690Z,100.00
2022-12-11T01:38:11.405Z,100.00
2022-12-11T01:40:39.098Z,100.00
2022-12-11T01:43:06.782Z,100.00
2022-12-11T01:45:44.570Z,100.00
2022-12-11T01:48:15.235Z,100.00
2022-12-11T01:50:46.182Z,100.00
2022-12-11T01:53:18.790Z,100.00
2022-12-11T01:55:48.727Z,100.00
2022-12-11T01:58:18.264Z,100.00
2022-12-11T02:00:47.810Z,100.00
2022-12-11T02:03:15.652Z,100.00
2022-12-11T02:05:43.292Z,100.00
2022-12-11T02:08:11.545Z,100.00
2022-12-11T02:14:31.326Z,100.00
2022-12-11T02:17:04.731Z,100.00
2022-12-11T02:19:48.341Z,100.00
2022-12-11T02:22:28.528Z,100.00
2022-12-11T02:25:12.117Z,100.00
2022-12-11T02:27:45.851Z,100.00
2022-12-11T02:30:16.429Z,100.00
2022-12-11T02:32:48.187Z,100.00
2022-12-11T02:35:20.013Z,100.00
2022-12-11T02:37:49.655Z,100.00
2022-12-11T02:40:23.153Z,100.00
2022-12-11T02:42:53.231Z,100.00
2022-12-11T02:45:24.487Z,100.00
2022-12-11T02:47:53.568Z,100.00
2022-12-11T02:50:23.494Z,100.00
2022-12-11T02:52:55.745Z,100.00
2022-12-11T02:55:27.248Z,100.00
2022-12-11T02:58:01.052Z,100.00
2022-12-11T03:00:30.355Z,100.00
2022-12-11T03:02:58.778Z,100.00
2022-12-11T03:05:27.962Z,100.00
2022-12-11T03:07:55.983Z,100.00
2022-12-11T03:10:24.220Z,100.00
2022-12-11T03:12:55.408Z,100.00
2022-12-11T03:15:30.211Z,100.00
2022-12-11T03:18:07.611Z,100.00
2022-12-11T03:20:41.277Z,100.00
2022-12-11T03:23:21.607Z,100.00
2022-12-11T03:25:55.114Z,100.00
2022-12-11T03:28:28.345Z,100.00
2022-12-11T03:30:57.929Z,100.00
2022-12-11T03:33:34.068Z,100.00
2022-12-11T03:36:07.419Z,100.00
2022-12-11T03:38:38.643Z,100.00
2022-12-11T03:41:08.838Z,100.00
2022-12-11T03:43:38.403Z,100.00
2022-12-11T03:46:09.815Z,100.00
2022-12-11T03:48:43.325Z,100.00
2022-12-11T03:51:11.089Z,100.00
2022-12-11T03:53:40.714Z,100.00
2022-12-11T03:56:11.863Z,100.00
2022-12-11T03:58:39.630Z,100.00
2022-12-11T04:01:09.868Z,100.00
2022-12-11T04:03:39.463Z,100.00
2022-12-11T04:06:07.560Z,100.00
2022-12-11T04:08:35.231Z,100.00
2022-12-11T04:11:22.252Z,100.00
2022-12-11T04:14:10.203Z,100.00
2022-12-11T04:16:37.015Z,100.00
2022-12-11T04:19:23.058Z,100.00
2022-12-11T04:22:08.486Z,100.00
2022-12-11T04:24:36.160Z,100.00
2022-12-11T04:27:03.829Z,100.00
2022-12-11T04:29:31.488Z,100.00
2022-12-11T04:31:59.299Z,100.00
2022-12-11T04:34:28.341Z,100.00
2022-12-11T04:36:56.065Z,100.00
2022-12-11T04:39:23.693Z,100.00
2022-12-11T04:41:51.321Z,100.00
2022-12-11T04:44:18.998Z,100.00
2022-12-11T04:46:46.729Z,100.00
2022-12-11T04:49:14.355Z,100.00
2022-12-11T04:51:43.687Z,100.00
2022-12-11T04:54:11.354Z,100.00
2022-12-11T04:56:39.007Z,100.00
2022-12-11T04:59:06.650Z,100.00
2022-12-11T05:01:34.358Z,100.00
2022-12-11T05:04:02.097Z,100.00
2022-12-11T05:06:29.896Z,100.00
2022-12-11T05:08:59.014Z,100.00
2022-12-11T05:11:26.718Z,100.00
2022-12-11T05:13:54.385Z,100.00
2022-12-11T05:16:22.048Z,100.00
2022-12-11T05:18:49.795Z,100.00
2022-12-11T05:21:17.453Z,100.00
2022-12-11T05:23:45.129Z,100.00
2022-12-11T05:26:17.269Z,100.00
2022-12-11T05:28:49.401Z,100.00
2022-12-11T05:31:19.957Z,100.00
2022-12-11T05:33:48.904Z,100.00
2022-12-11T05:36:18.274Z,100.00
2022-12-11T05:38:46.350Z,100.00
2022-12-11T05:41:17.833Z,100.00
2022-12-11T05:43:46.027Z,100.00
2022-12-11T05:46:16.763Z,100.00
2022-12-11T05:48:50.730Z,100.00
2022-12-11T05:51:19.217Z,100.00
2022-12-11T05:53:48.825Z,100.00
2022-12-11T05:56:20.291Z,100.00
2022-12-11T05:58:49.056Z,100.00
2022-12-11T06:01:21.631Z,100.00
2022-12-11T06:03:49.844Z,100.00
2022-12-11T06:06:18.009Z,100.00
2022-12-11T06:08:45.683Z,100.00
2022-12-11T06:11:18.390Z,100.00
2022-12-11T06:13:50.116Z,100.00
2022-12-11T06:16:17.894Z,100.00
2022-12-11T06:18:46.251Z,100.00
2022-12-11T06:21:15.628Z,100.00
2022-12-11T06:23:44.938Z,100.00
2022-12-11T06:26:13.633Z,100.00
2022-12-11T06:28:41.322Z,100.00
2022-12-11T06:31:10.872Z,100.00
2022-12-11T06:33:38.565Z,100.00
2022-12-11T06:36:08.181Z,100.00
2022-12-11T06:38:36.424Z,100.00
2022-12-11T06:41:05.781Z,100.00
2022-12-11T06:43:34.532Z,100.00
2022-12-11T06:46:04.700Z,100.00
2022-12-11T06:48:33.775Z,100.00
2022-12-11T06:51:05.791Z,100.00
2022-12-11T06:53:33.424Z,100.00
2022-12-11T06:56:04.000Z,100.00
2022-12-11T06:58:31.693Z,100.00
2022-12-11T07:00:59.540Z,100.00
2022-12-11T07:03:27.243Z,100.00
2022-12-11T07:06:01.299Z,100.00
2022-12-11T07:08:29.598Z,100.00
2022-12-11T07:11:03.752Z,100.00
2022-12-11T07:13:31.406Z,100.00
2022-12-11T07:15:59.208Z,100.00
2022-12-11T07:18:26.981Z,100.00
2022-12-11T07:20:56.032Z,100.00
2022-12-11T07:23:23.685Z,100.00
2022-12-11T07:25:51.593Z,100.00
2022-12-11T07:28:24.888Z,100.00
2022-12-11T07:30:52.591Z,100.00
2022-12-11T07:33:20.303Z,100.00
2022-12-11T07:35:47.977Z,100.00
2022-12-11T07:38:17.112Z,100.00
2022-12-11T07:40:44.851Z,100.00
2022-12-11T07:43:12.571Z,100.00
2022-12-11T07:45:40.288Z,100.00
2022-12-11T07:48:08.285Z,100.00
2022-12-11T07:50:39.716Z,100.00
2022-12-11T07:53:07.791Z,100.00
2022-12-11T07:55:36.784Z,100.00
2022-12-11T07:58:04.756Z,100.00
2022-12-11T08:00:32.424Z,100.00
2022-12-11T08:03:00.163Z,100.00
2022-12-11T08:05:27.815Z,100.00
2022-12-11T08:07:55.678Z,100.00
2022-12-11T08:10:23.395Z,100.00
2022-12-11T08:12:52.414Z,100.00
2022-12-11T08:15:20.082Z,100.00
2022-12-11T08:17:47.872Z,100.00
2022-12-11T08:20:16.017Z,100.00
2022-12-11T08:22:44.897Z,100.00
2022-12-11T08:25:12.767Z,100.00
2022-12-11T08:27:40.840Z,100.00
2022-12-11T08:30:11.317Z,100.00
2022-12-11T08:32:39.049Z,100.00
2022-12-11T08:35:27.880Z,100.00
2022-12-11T08:37:55.586Z,100.00
2022-12-11T08:40:23.322Z,100.00
2022-12-11T08:42:52.214Z,100.00
2022-12-11T08:45:21.203Z,100.00
2022-12-11T08:47:48.877Z,100.00
2022-12-11T08:50:16.801Z,100.00
2022-12-11T08:52:44.488Z,100.00
2022-12-11T08:55:12.949Z,100.00
2022-12-11T08:57:40.836Z,100.00
2022-12-11T09:00:10.597Z,100.00
2022-12-11T09:02:39.716Z,100.00
2022-12-11T09:05:10.097Z,100.00
2022-12-11T09:07:38.976Z,100.00
2022-12-11T09:10:08.430Z,100.00
2022-12-11T09:12:36.209Z,100.00
2022-12-11T09:15:04.591Z,100.00
2022-12-11T09:17:32.372Z,100.00
2022-12-11T09:20:01.472Z,100.00
2022-12-11T09:22:29.257Z,100.00
2022-12-11T09:24:56.964Z,100.00
2022-12-11T09:27:24.593Z,100.00
2022-12-11T09:29:52.445Z,100.00
2022-12-11T09:32:20.079Z,100.00
2022-12-11T09:34:50.997Z,100.00
2022-12-11T09:37:20.172Z,100.00
2022-12-11T09:39:48.119Z,100.00
2022-12-11T09:42:20.830Z,100.00
2022-12-11T09:44:55.293Z,100.00
2022-12-11T09:47:28.660Z,100.00
2022-12-11T09:50:03.956Z,100.00
2022-12-11T09:52:38.452Z,100.00
2022-12-11T09:55:16.252Z,100.00
2022-12-11T09:57:54.022Z,100.00
2022-12-11T10:00:28.496Z,100.00
2022-12-11T10:03:35.522Z,100.00
2022-12-11T10:06:13.475Z,100.00
2022-12-11T10:08:48.958Z,100.00
2022-12-11T10:11:57.621Z,100.00
2022-12-11T10:14:36.885Z,100.00
2022-12-11T10:17:12.188Z,100.00
2022-12-11T10:19:42.371Z,100.00
2022-12-11T10:22:20.954Z,100.00
2022-12-11T10:25:13.272Z,100.00
2022-12-11T10:27:42.202Z,100.00
2022-12-11T10:30:17.162Z,100.00
2022-12-11T10:32:53.070Z,100.00
2022-12-11T10:35:29.758Z,100.00
2022-12-11T10:38:03.045Z,100.00
2022-12-11T10:40:36.109Z,100.00
2022-12-11T10:43:03.802Z,100.00
2022-12-11T10:45:31.654Z,100.00
2022-12-11T10:48:07.766Z,100.00
2022-12-11T10:50:35.407Z,100.00
2022-12-11T10:53:03.226Z,100.00
2022-12-11T10:55:41.132Z,100.00
2022-12-11T10:58:17.895Z,100.00
2022-12-11T11:00:46.910Z,100.00
2022-12-11T11:03:23.390Z,100.00
2022-12-11T11:06:02.389Z,100.00
2022-12-11T11:08:40.403Z,100.00
2022-12-11T11:11:22.488Z,100.00
2022-12-11T11:13:53.819Z,100.00
2022-12-11T11:16:23.271Z,100.00
2022-12-11T11:18:54.720Z,100.00
2022-12-11T11:22:00.068Z,100.00
2022-12-11T11:24:36.338Z,100.00
2022-12-11T11:27:14.111Z,100.00
2022-12-11T11:29:42.890Z,100.00
2022-12-11T11:32:20.847Z,100.00
2022-12-11T11:34:48.539Z,100.00
2022-12-11T11:37:24.631Z,100.00
2022-12-11T11:39:57.399Z,100.00
2022-12-11T11:42:38.669Z,100.00
2022-12-11T11:45:13.932Z,100.00
2022-12-11T11:47:46.408Z,100.00
2022-12-11T11:53:06.712Z,100.00
2022-12-11T11:55:43.664Z,100.00
2022-12-11T11:58:18.005Z,100.00
2022-12-11T12:00:45.657Z,100.00
2022-12-11T12:03:16.361Z,100.00
2022-12-11T12:05:49.613Z,100.00
2022-12-11T12:08:43.043Z,100.00
2022-12-11T12:11:20.282Z,100.00
2022-12-11T12:14:00.023Z,100.00
2022-12-11T12:16:55.121Z,100.00
2022-12-11T12:19:39.561Z,100.00
2022-12-11T12:22:25.373Z,100.00
2022-12-11T12:25:16.134Z,100.00
2022-12-11T12:27:52.607Z,100.00
2022-12-11T12:30:24.081Z,100.00
2022-12-11T12:33:10.357Z,100.00
2022-12-11T12:35:41.514Z,100.00
2022-12-11T12:38:16.347Z,100.00
2022-12-11T12:41:01.102Z,100.00
2022-12-11T12:43:47.401Z,100.00
2022-12-11T12:46:34.262Z,94.93
2022-12-11T12:49:25.720Z,84.75
2022-12-11T12:51:54.140Z,75.14
2022-12-11T12:54:23.041Z,74.81
2022-12-11T12:56:51.047Z,78.53
2022-12-11T12:59:30.602Z,83.76
2022-12-11T13:02:01.711Z,86.83
2022-12-11T13:07:29.828Z,89.78
2022-12-11T13:10:01.254Z,90.37
2022-12-11T13:12:35.678Z,92.50
2022-12-11T13:15:03.377Z,93.15
2022-12-11T13:17:39.760Z,93.26
2022-12-11T13:20:19.018Z,93.61
2022-12-11T13:22:57.434Z,95.05
2022-12-11T13:25:30.759Z,95.62
2022-12-11T13:28:08.803Z,95.38
2022-12-11T13:30:36.583Z,95.68
2022-12-11T13:33:08.513Z,93.24
2022-12-11T13:35:36.649Z,93.90
2022-12-11T13:38:13.996Z,93.94
2022-12-11T13:40:43.889Z,93.14
2022-12-11T13:43:19.947Z,91.56
2022-12-11T13:45:51.360Z,91.55
2022-12-11T13:48:26.142Z,92.47
2022-12-11T13:50:54.903Z,92.97
2022-12-11T13:53:23.597Z,93.49
2022-12-11T13:56:03.016Z,94.96
2022-12-11T13:58:32.107Z,94.77
2022-12-11T14:01:08.639Z,94.86
2022-12-11T14:03:42.208Z,93.36
2022-12-11T14:06:18.059Z,91.43
2022-12-11T14:08:49.183Z,90.91
2022-12-11T14:11:22.890Z,90.62
2022-12-11T14:13:51.491Z,91.55
2022-12-11T14:16:24.013Z,91.28
2022-12-11T14:18:54.476Z,90.16
2022-12-11T14:21:24.333Z,90.39
2022-12-11T14:23:54.093Z,91.32
2022-12-11T14:26:23.913Z,91.51
2022-12-11T14:28:52.450Z,92.21
2022-12-11T14:31:29.973Z,90.37
2022-12-11T14:34:03.336Z,91.92
2022-12-11T14:36:35.715Z,91.49
2022-12-11T14:39:09.459Z,92.95
2022-12-11T14:41:44.404Z,91.71
2022-12-11T14:44:16.703Z,92.40
2022-12-11T14:46:47.871Z,93.18
2022-12-11T14:49:24.276Z,93.14
2022-12-11T14:51:55.167Z,92.81
2022-12-11T14:54:30.655Z,92.40
2022-12-11T14:56:59.960Z,92.57
2022-12-11T14:59:32.287Z,93.78
2022-12-11T15:02:02.430Z,93.85
2022-12-11T15:04:34.428Z,93.92
2022-12-11T15:07:02.082Z,95.17
2022-12-11T15:09:37.962Z,94.69
2022-12-11T15:12:12.268Z,95.97
2022-12-11T15:14:46.833Z,95.38
2022-12-11T15:17:16.179Z,96.20
2022-12-11T15:19:49.431Z,96.82
2022-12-11T15:22:18.343Z,96.68
2022-12-11T15:24:47.475Z,97.20
2022-12-11T15:27:26.290Z,98.58
2022-12-11T15:29:54.238Z,98.08
2022-12-11T15:32:22.720Z,98.64
2022-12-11T15:34:54.085Z,99.08
2022-12-11T15:37:24.111Z,99.75
2022-12-11T15:39:55.125Z,99.85
2022-12-11T15:42:27.872Z,100.00
2022-12-11T15:44:56.384Z,100.00
2022-12-11T15:47:27.446Z,100.00
2022-12-11T15:50:00.707Z,100.00
2022-12-11T15:52:28.898Z,100.00
2022-12-11T15:54:56.613Z,100.00
2022-12-11T15:57:25.662Z,100.00
2022-12-11T15:59:56.015Z,100.00
2022-12-11T16:02:26.627Z,100.00
2022-12-11T16:04:55.904Z,100.00
2022-12-11T16:07:26.117Z,100.00
2022-12-11T16:09:54.365Z,100.00
2022-12-11T16:12:22.051Z,100.00
2022-12-11T16:14:49.717Z,100.00
2022-12-11T16:17:17.428Z,100.00
2022-12-11T16:19:45.828Z,100.00
2022-12-11T16:22:15.748Z,100.00
2022-12-11T16:24:44.351Z,100.00
2022-12-11T16:27:12.047Z,100.00
2022-12-11T16:29:41.871Z,100.00
2022-12-11T16:32:10.124Z,100.00
2022-12-11T16:34:38.830Z,100.00
2022-12-11T16:37:10.021Z,100.00
2022-12-11T16:39:39.796Z,100.00
2022-12-11T16:42:07.728Z,100.00
2022-12-11T16:44:39.555Z,100.00
2022-12-11T16:47:10.293Z,100.00
2022-12-11T16:49:38.147Z,100.00
2022-12-11T16:52:06.305Z,100.00
2022-12-11T16:54:34.008Z,100.00
2022-12-11T16:57:02.997Z,100.00
2022-12-11T16:59:36.643Z,100.00
2022-12-11T17:02:05.251Z,100.00
2022-12-11T17:04:33.017Z,100.00
2022-12-11T17:07:00.685Z,100.00
2022-12-11T17:09:28.742Z,100.00
2022-12-11T17:11:56.996Z,100.00
2022-12-11T17:14:26.055Z,100.00
2022-12-11T17:16:53.782Z,100.00
2022-12-11T17:19:21.477Z,100.00
2022-12-11T17:21:51.825Z,100.00
2022-12-11T17:24:19.702Z,100.00
2022-12-11T17:26:47.617Z,100.00
2022-12-11T17:29:15.637Z,100.00
2022-12-11T17:31:44.600Z,100.00
2022-12-11T17:34:12.534Z,100.00
2022-12-11T17:36:40.233Z,100.00
2022-12-11T17:39:08.335Z,100.00
2022-12-11T17:41:36.034Z,100.00
2022-12-11T17:44:03.654Z,100.00
2022-12-11T17:46:31.696Z,100.00
2022-12-11T17:49:03.153Z,100.00
2022-12-11T17:51:30.912Z,100.00
2022-12-11T17:53:58.624Z,100.00
2022-12-11T17:56:27.059Z,100.00
2022-12-11T17:58:55.001Z,100.00
2022-12-11T18:01:22.768Z,100.00
2022-12-11T18:03:50.580Z,100.00
2022-12-11T18:06:19.758Z,100.00
2022-12-11T18:08:47.511Z,100.00
2022-12-11T18:11:21.573Z,100.00
2022-12-11T18:13:50.408Z,100.00
2022-12-11T18:16:20.022Z,100.00
2022-12-11T18:18:50.305Z,100.00
2022-12-11T18:21:22.016Z,100.00
2022-12-11T18:23:50.976Z,100.00
2022-12-11T18:26:19.586Z,100.00
2022-12-11T18:28:48.364Z,100.00
2022-12-11T18:31:16.981Z,100.00
2022-12-11T18:33:45.811Z,100.00
2022-12-11T18:36:15.426Z,100.00
2022-12-11T18:38:46.993Z,100.00
2022-12-11T18:41:15.923Z,100.00
2022-12-11T18:43:44.109Z,100.00
2022-12-11T18:46:14.828Z,100.00
2022-12-11T18:48:45.825Z,100.00
2022-12-11T18:51:17.065Z,100.00
2022-12-11T18:53:46.670Z,100.00
2022-12-11T18:56:17.098Z,100.00
2022-12-11T18:58:45.622Z,100.00
2022-12-11T19:01:16.738Z,100.00
2022-12-11T19:03:44.504Z,100.00
2022-12-11T19:06:14.932Z,100.00
2022-12-11T19:08:42.999Z,100.00
2022-12-11T19:11:15.682Z,100.00
2022-12-11T19:13:43.891Z,100.00
2022-12-11T19:16:16.847Z,100.00
2022-12-11T19:18:45.343Z,100.00
2022-12-11T19:21:14.070Z,100.00
2022-12-11T19:23:43.411Z,100.00
2022-12-11T19:26:13.457Z,100.00
2022-12-11T19:28:41.539Z,100.00
2022-12-11T19:31:10.983Z,100.00
2022-12-11T19:33:39.391Z,100.00
2022-12-11T19:36:10.356Z,100.00
2022-12-11T19:38:38.932Z,100.00
2022-12-11T19:41:07.808Z,100.00
2022-12-11T19:43:37.617Z,100.00
2022-12-11T19:46:07.976Z,100.00
2022-12-11T19:48:37.439Z,100.00
2022-12-11T19:51:06.038Z,100.00
2022-12-11T19:53:34.606Z,100.00
2022-12-11T19:56:02.432Z,100.00
2022-12-11T19:58:30.141Z,100.00
2022-12-11T20:00:59.305Z,100.00
2022-12-11T20:03:27.645Z,100.00
2022-12-11T20:06:01.331Z,100.00
2022-12-11T20:08:44.062Z,100.00
2022-12-11T20:11:17.974Z,100.00
2022-12-11T20:13:46.753Z,100.00
2022-12-11T20:16:17.338Z,100.00
2022-12-11T20:18:45.570Z,100.00
2022-12-11T20:21:15.674Z,100.00
2022-12-11T20:23:45.210Z,100.00
2022-12-11T20:26:15.634Z,100.00
2022-12-11T20:28:43.449Z,100.00
2022-12-11T20:31:18.221Z,100.00
2022-12-11T20:33:49.751Z,100.00
2022-12-11T20:36:20.351Z,100.00
2022-12-11T20:38:48.752Z,100.00
2022-12-11T20:41:18.994Z,100.00
2022-12-11T20:43:49.040Z,100.00
2022-12-11T20:46:18.669Z,100.00
2022-12-11T20:48:54.609Z,100.00
2022-12-11T20:51:26.260Z,100.00
2022-12-11T20:53:58.329Z,100.00
2022-12-11T20:56:28.416Z,100.00
2022-12-11T20:58:56.769Z,100.00
2022-12-11T21:01:27.314Z,100.00
2022-12-11T21:03:55.523Z,100.00
2022-12-11T21:06:26.368Z,100.00
2022-12-11T21:08:54.694Z,100.00
2022-12-11T21:11:22.824Z,100.00
2022-12-11T21:13:51.105Z,100.00
2022-12-11T21:16:19.514Z,100.00
2022-12-11T21:18:48.231Z,100.00
2022-12-11T21:21:16.632Z,100.00
2022-12-11T21:23:46.298Z,100.00
2022-12-11T21:26:14.290Z,100.00
2022-12-11T21:28:42.405Z,100.00
2022-12-11T21:31:14.370Z,100.00
2022-12-11T21:33:42.314Z,100.00
2022-12-11T21:36:13.230Z,100.00
2022-12-11T21:38:41.692Z,100.00
2022-12-11T21:41:13.601Z,100.00
2022-12-11T21:44:12.923Z,100.00
2022-12-11T21:46:30.353Z,100.00
2022-12-11T21:48:58.100Z,100.00
2022-12-11T21:51:31.046Z,100.00
2022-12-11T21:54:03.042Z,100.00
2022-12-11T21:56:32.286Z,100.00
2022-12-11T21:59:01.352Z,100.00
2022-12-11T22:01:31.420Z,100.00
2022-12-11T22:03:59.656Z,100.00
2022-12-11T22:06:29.359Z,100.00
2022-12-11T22:08:57.154Z,100.00
2022-12-11T22:11:26.972Z,100.00
2022-12-11T22:13:56.380Z,100.00
2022-12-11T22:16:24.922Z,100.00
2022-12-11T22:18:52.669Z,100.00
2022-12-11T22:21:20.866Z,100.00
2022-12-11T22:23:48.611Z,100.00
2022-12-11T22:26:19.579Z,100.00
2022-12-11T22:28:49.373Z,100.00
2022-12-11T22:31:22.049Z,100.00
2022-12-11T22:33:51.161Z,100.00
2022-12-11T22:36:19.019Z,100.00
2022-12-11T22:38:46.972Z,100.00
2022-12-11T22:41:23.444Z,100.00
2022-12-11T22:43:51.467Z,100.00
2022-12-11T22:46:23.884Z,100.00
2022-12-11T22:48:52.008Z,100.00
2022-12-11T22:51:19.827Z,100.00
2022-12-11T22:53:48.073Z,100.00
2022-12-11T22:56:16.351Z,100.00
2022-12-11T22:58:44.036Z,100.00
2022-12-11T23:01:13.577Z,100.00
2022-12-11T23:03:42.850Z,100.00
2022-12-11T23:06:14.117Z,100.00
2022-12-11T23:08:42.687Z,100.00
2022-12-11T23:11:13.257Z,100.00
2022-12-11T23:13:41.076Z,100.00
2022-12-11T23:16:08.984Z,100.00
2022-12-11T23:18:36.836Z,100.00
2022-12-11T23:21:06.358Z,100.00
2022-12-11T23:23:34.036Z,100.00
2022-12-11T23:26:01.766Z,100.00
2022-12-11T23:28:29.598Z,100.00
2022-12-11T23:30:57.307Z,100.00
2022-12-11T23:33:25.095Z,100.00
2022-12-11T23:35:52.816Z,100.00
2022-12-11T23:38:21.895Z,100.00
2022-12-11T23:40:57.454Z,100.00
2022-12-11T23:43:25.091Z,100.00
2022-12-11T23:45:52.807Z,100.00
2022-12-11T23:48:20.625Z,100.00
2022-12-11T23:50:48.617Z,100.00
2022-12-11T23:53:16.650Z,100.00
2022-12-11T23:55:46.394Z,100.00
2022-12-11T23:58:14.228Z,100.00
